Time;durP1;ratioP1;P1;durP2;ratioP2;P2;SDS_P1;SDS_P2;PMS_P1;PMS_P2;Temp;Humidity;BMP_temperature;BMP_pressure;BME280_temperature;BME280_humidity;BME280_pressure;Samples;Min_cycle;Max_cycle;Signal;HPM_P1;HPM_P2
2022/11/06 00:00:12;;;;;;;2.47;2.27;;;;;;;;;;5034464;28;20559;-56
2022/11/06 00:02:37;;;;;;;2.80;2.40;;;;;;;;;;5029922;28;20187;-57
2022/11/06 00:07:47;;;;;;;2.80;2.50;;;;;;;;;;5033804;28;20209;-59
2022/11/06 00:10:14;;;;;;;2.47;2.27;;;;;;;;;;5032074;28;20262;-56
2022/11/06 00:12:39;;;;;;;3.53;2.60;;;;;;;;;;5029782;28;20182;-57
2022/11/06 00:15:05;;;;;;;3.13;2.40;;;;;;;;;;5012260;28;20191;-58
2022/11/06 00:17:31;;;;;;;3.07;2.20;;;;;;;;;;5032868;28;20171;-57
2022/11/06 00:19:56;;;;;;;3.33;2.70;;;;;;;;;;5031919;28;20175;-58
2022/11/06 00:22:21;;;;;;;3.07;2.40;;;;;;;;;;5033733;28;20237;-56
2022/11/06 00:24:48;;;;;;;2.73;2.30;;;;;;;;;;5037944;28;20291;-56
2022/11/06 00:27:13;;;;;;;3.33;2.47;;;;;;;;;;5030684;28;20199;-56
2022/11/06 00:29:38;;;;;;;3.30;2.53;;;;;;;;;;5030474;28;20179;-55
2022/11/06 00:32:04;;;;;;;3.53;2.70;;;;;;;;;;5035273;28;20586;-57
2022/11/06 00:34:29;;;;;;;3.70;2.70;;;;;;;;;;5029514;28;20679;-55
2022/11/06 00:36:54;;;;;;;4.20;2.43;;;;;;;;;;5036700;28;20184;-57
2022/11/06 00:39:19;;;;;;;3.50;2.57;;;;;;;;;;5036516;28;20191;-56
2022/11/06 00:41:45;;;;;;;3.03;2.50;;;;;;;;;;5037280;28;20191;-54
2022/11/06 00:44:10;;;;;;;2.77;2.50;;;;;;;;;;5041527;28;20200;-56
2022/11/06 00:46:35;;;;;;;3.07;2.47;;;;;;;;;;5042769;28;20175;-59
2022/11/06 00:49:00;;;;;;;2.83;2.53;;;;;;;;;;5043513;28;20292;-58
2022/11/06 00:51:31;;;;;;;2.93;2.53;;;;;;;;;;5049174;28;20182;-54
2022/11/06 00:53:58;;;;;;;2.80;2.43;;;;;;;;;;5044439;28;20241;-57
2022/11/06 00:56:24;;;;;;;3.80;2.70;;;;;;;;;;5047961;28;20178;-56
2022/11/06 00:58:50;;;;;;;3.40;2.67;;;;;;;;;;5023301;28;20180;-58
2022/11/06 01:01:18;;;;;;;2.63;2.43;;;;;;;;;;5042135;28;20241;-57
2022/11/06 01:03:45;;;;;;;2.80;2.40;;;;;;;;;;5046059;28;20252;-55
2022/11/06 01:06:13;;;;;;;3.97;2.53;;;;;;;;;;5046384;28;20185;-55
2022/11/06 01:08:38;;;;;;;2.90;2.43;;;;;;;;;;5045654;28;20191;-57
2022/11/06 01:11:09;;;;;;;2.73;2.43;;;;;;;;;;5037008;28;20182;-56
2022/11/06 01:13:34;;;;;;;3.33;2.60;;;;;;;;;;5036498;28;20772;-56
2022/11/06 01:16:00;;;;;;;3.40;2.37;;;;;;;;;;5039198;28;20179;-57
2022/11/06 01:18:25;;;;;;;3.50;2.50;;;;;;;;;;5038735;28;20196;-56
2022/11/06 01:20:51;;;;;;;2.80;2.50;;;;;;;;;;5021679;28;20245;-56
2022/11/06 01:23:16;;;;;;;2.80;2.40;;;;;;;;;;5035137;28;20172;-59
2022/11/06 01:25:41;;;;;;;3.43;2.50;;;;;;;;;;5034714;28;20176;-55
2022/11/06 01:28:06;;;;;;;2.70;2.50;;;;;;;;;;5032835;28;20202;-55
2022/11/06 01:30:35;;;;;;;2.83;2.40;;;;;;;;;;5034636;28;20186;-53
2022/11/06 01:33:00;;;;;;;3.17;2.70;;;;;;;;;;5037707;28;20275;-60
2022/11/06 01:35:25;;;;;;;3.60;2.40;;;;;;;;;;5035826;28;20310;-55
2022/11/06 01:37:51;;;;;;;3.57;2.67;;;;;;;;;;5036229;28;20591;-55
2022/11/06 01:40:16;;;;;;;3.07;2.40;;;;;;;;;;5033704;28;20666;-54
2022/11/06 01:42:41;;;;;;;2.80;2.40;;;;;;;;;;5034630;28;20180;-55
2022/11/06 01:45:15;;;;;;;3.53;2.50;;;;;;;;;;5033733;28;20202;-57
2022/11/06 01:47:40;;;;;;;3.13;2.47;;;;;;;;;;5018225;28;20192;-57
2022/11/06 01:50:07;;;;;;;2.83;2.50;;;;;;;;;;5031661;28;20194;-57
2022/11/06 01:52:33;;;;;;;3.07;2.50;;;;;;;;;;5014107;28;20172;-58
2022/11/06 01:55:09;;;;;;;3.07;2.43;;;;;;;;;;5037616;28;20253;-55
2022/11/06 01:57:35;;;;;;;3.10;2.60;;;;;;;;;;5031773;28;20600;-58
2022/11/06 02:00:00;;;;;;;3.17;2.30;;;;;;;;;;5031716;28;20218;-54
2022/11/06 02:02:25;;;;;;;3.10;2.53;;;;;;;;;;5019267;28;20669;-58
2022/11/06 02:04:51;;;;;;;2.97;2.40;;;;;;;;;;5020759;28;20205;-56
2022/11/06 02:07:17;;;;;;;5.63;2.43;;;;;;;;;;5033096;28;20207;-56
2022/11/06 02:09:42;;;;;;;3.37;2.43;;;;;;;;;;5032748;28;20647;-56
2022/11/06 02:12:26;;;;;;;2.73;2.37;;;;;;;;;;5033530;28;20191;-59
2022/11/06 02:15:12;;;;;;;2.87;2.50;;;;;;;;;;5037407;28;20233;-59
2022/11/06 02:17:50;;;;;;;2.90;2.43;;;;;;;;;;5021711;28;20174;-55
2022/11/06 02:20:31;;;;;;;3.60;2.57;;;;;;;;;;5014346;28;20207;-55
2022/11/06 02:23:24;;;;;;;3.60;2.60;;;;;;;;;;5014711;28;20184;-57
2022/11/06 02:26:01;;;;;;;3.20;2.60;;;;;;;;;;5033539;28;20258;-54
2022/11/06 02:28:31;;;;;;;3.27;2.60;;;;;;;;;;5037906;28;20217;-57
2022/11/06 02:30:57;;;;;;;2.90;2.60;;;;;;;;;;5035912;28;20190;-59
2022/11/06 02:33:28;;;;;;;3.03;2.40;;;;;;;;;;5036500;28;20189;-54
2022/11/06 02:36:00;;;;;;;2.80;2.30;;;;;;;;;;5037807;28;20193;-57
2022/11/06 02:38:36;;;;;;;3.23;2.73;;;;;;;;;;5012446;28;20662;-56
2022/11/06 02:41:04;;;;;;;2.80;2.50;;;;;;;;;;5034019;28;20609;-57
2022/11/06 02:43:36;;;;;;;3.00;2.57;;;;;;;;;;5021057;28;20194;-58
2022/11/06 02:46:06;;;;;;;3.10;2.40;;;;;;;;;;5032550;28;20190;-55
2022/11/06 02:48:37;;;;;;;3.00;2.33;;;;;;;;;;5015587;28;20228;-55
2022/11/06 02:51:04;;;;;;;2.80;2.50;;;;;;;;;;5017724;28;20646;-57
2022/11/06 02:53:30;;;;;;;2.53;2.30;;;;;;;;;;5014317;28;20679;-59
2022/11/06 02:56:01;;;;;;;3.50;2.60;;;;;;;;;;5020463;28;20187;-55
2022/11/06 02:59:03;;;;;;;2.80;2.33;;;;;;;;;;5015003;28;20179;-55
2022/11/06 03:01:32;;;;;;;2.90;2.60;;;;;;;;;;5016650;28;20542;-57
2022/11/06 03:04:02;;;;;;;3.87;2.70;;;;;;;;;;5020655;28;20297;-54
2022/11/06 03:06:41;;;;;;;2.50;2.30;;;;;;;;;;5040556;28;20562;-54
2022/11/06 03:09:11;;;;;;;3.03;2.30;;;;;;;;;;5039202;28;20183;-56
2022/11/06 03:11:39;;;;;;;3.10;2.40;;;;;;;;;;5022314;28;20248;-58
2022/11/06 03:14:18;;;;;;;3.47;2.50;;;;;;;;;;5023009;28;20234;-54
2022/11/06 03:16:57;;;;;;;3.43;2.50;;;;;;;;;;5043214;28;20270;-53
2022/11/06 03:19:33;;;;;;;3.30;2.70;;;;;;;;;;5025608;28;20557;-52
2022/11/06 03:22:13;;;;;;;2.90;2.27;;;;;;;;;;5018211;28;20183;-52
2022/11/06 03:24:50;;;;;;;2.70;2.43;;;;;;;;;;5043059;28;20198;-51
2022/11/06 03:27:22;;;;;;;3.00;2.33;;;;;;;;;;5024337;28;20210;-53
2022/11/06 03:29:50;;;;;;;3.30;2.57;;;;;;;;;;5006421;28;20178;-52
2022/11/06 03:32:37;;;;;;;2.83;2.20;;;;;;;;;;5045434;28;20182;-52
2022/11/06 03:35:14;;;;;;;2.83;2.60;;;;;;;;;;5020670;28;20696;-52
2022/11/06 03:37:44;;;;;;;3.70;2.20;;;;;;;;;;5027610;28;20653;-59
2022/11/06 03:40:13;;;;;;;3.00;2.53;;;;;;;;;;5022258;28;20183;-58
2022/11/06 03:42:39;;;;;;;2.90;2.20;;;;;;;;;;5022418;28;20175;-55
2022/11/06 03:45:08;;;;;;;2.33;2.13;;;;;;;;;;5022025;28;20260;-56
2022/11/06 03:47:40;;;;;;;2.70;2.40;;;;;;;;;;5021124;28;20213;-52
2022/11/06 03:50:16;;;;;;;2.33;2.13;;;;;;;;;;5030101;28;20179;-51
2022/11/06 03:52:47;;;;;;;3.23;2.43;;;;;;;;;;5023169;28;20186;-52
2022/11/06 03:55:16;;;;;;;3.30;2.73;;;;;;;;;;5006472;28;20704;-54
2022/11/06 03:57:53;;;;;;;2.57;2.20;;;;;;;;;;5018364;28;20182;-53
2022/11/06 04:00:21;;;;;;;2.67;2.30;;;;;;;;;;5019382;28;20240;-52
2022/11/06 04:03:03;;;;;;;3.13;2.83;;;;;;;;;;5027061;28;20206;-52
2022/11/06 04:05:31;;;;;;;2.60;2.40;;;;;;;;;;5017623;28;20260;-53
2022/11/06 04:16:14;;;;;;;2.93;2.40;;;;;;;;;;5026122;28;20266;-52
2022/11/06 04:18:40;;;;;;;2.90;2.60;;;;;;;;;;5035815;28;20258;-58
2022/11/06 04:21:59;;;;;;;2.77;2.47;;;;;;;;;;5036014;28;20207;-53
2022/11/06 04:27:43;;;;;;;2.53;2.30;;;;;;;;;;5002821;28;20241;-53
2022/11/06 04:30:11;;;;;;;3.50;2.10;;;;;;;;;;5035477;28;20175;-52
2022/11/06 04:32:53;;;;;;;2.37;2.17;;;;;;;;;;5040925;28;21663;-58
2022/11/06 04:35:53;;;;;;;2.97;2.37;;;;;;;;;;5024060;28;20226;-58
2022/11/06 04:38:41;;;;;;;2.63;2.10;;;;;;;;;;5021828;28;20677;-55
2022/11/06 04:41:40;;;;;;;2.80;2.40;;;;;;;;;;5037829;28;20188;-52
2022/11/06 04:44:07;;;;;;;2.70;2.10;;;;;;;;;;5021407;28;20211;-55
2022/11/06 04:46:37;;;;;;;2.80;2.37;;;;;;;;;;5027702;28;20266;-55
2022/11/06 04:49:04;;;;;;;2.57;2.37;;;;;;;;;;5020760;28;20353;-54
2022/11/06 04:51:34;;;;;;;2.60;2.20;;;;;;;;;;5032005;28;20266;-51
2022/11/06 04:53:59;;;;;;;2.50;2.00;;;;;;;;;;5027923;28;20206;-50
2022/11/06 04:56:28;;;;;;;3.47;2.20;;;;;;;;;;5042345;28;20254;-53
2022/11/06 04:58:54;;;;;;;2.60;2.40;;;;;;;;;;5047833;28;20175;-51
2022/11/06 05:01:19;;;;;;;3.20;2.37;;;;;;;;;;5041470;28;20546;-55
2022/11/06 05:03:44;;;;;;;2.53;2.27;;;;;;;;;;5039648;28;20205;-52
2022/11/06 05:06:09;;;;;;;2.50;2.30;;;;;;;;;;5050993;28;20182;-52
2022/11/06 05:08:34;;;;;;;3.20;2.40;;;;;;;;;;5042506;28;20210;-55
2022/11/06 05:11:00;;;;;;;2.87;2.30;;;;;;;;;;5038583;28;20182;-52
2022/11/06 05:13:25;;;;;;;2.60;2.40;;;;;;;;;;5035730;28;20605;-57
2022/11/06 05:15:57;;;;;;;3.13;2.30;;;;;;;;;;5039206;28;20665;-51
2022/11/06 05:18:23;;;;;;;2.80;2.13;;;;;;;;;;5039689;28;20634;-55
2022/11/06 05:22:56;;;;;;;2.90;2.40;;;;;;;;;;5038602;28;20577;-52
2022/11/06 05:23:34;;;;;;;2.27;2.07;;;;;;;;;;5035171;28;20639;-52
2022/11/06 05:25:59;;;;;;;2.60;2.40;;;;;;;;;;5040630;28;20704;-53
2022/11/06 05:28:24;;;;;;;2.50;2.30;;;;;;;;;;5038297;28;20198;-55
2022/11/06 05:30:50;;;;;;;2.90;2.30;;;;;;;;;;5037209;28;20598;-54
2022/11/06 05:33:15;;;;;;;2.53;2.10;;;;;;;;;;5042285;28;20191;-54
2022/11/06 05:35:40;;;;;;;2.73;2.30;;;;;;;;;;5037428;28;20545;-53
2022/11/06 05:38:05;;;;;;;2.30;2.10;;;;;;;;;;5041295;28;20578;-51
2022/11/06 05:40:30;;;;;;;3.07;2.17;;;;;;;;;;5036708;28;20434;-55
2022/11/06 05:42:56;;;;;;;3.23;2.50;;;;;;;;;;5023005;28;20278;-54
2022/11/06 05:45:21;;;;;;;2.63;2.30;;;;;;;;;;5038768;28;20563;-53
2022/11/06 05:47:46;;;;;;;2.37;2.03;;;;;;;;;;5031654;28;20303;-52
2022/11/06 05:50:11;;;;;;;2.53;2.13;;;;;;;;;;5029292;28;20530;-52
2022/11/06 05:52:37;;;;;;;2.37;2.17;;;;;;;;;;5040366;28;21011;-58
2022/11/06 05:55:04;;;;;;;2.57;2.27;;;;;;;;;;5032260;28;20226;-53
2022/11/06 05:57:29;;;;;;;3.37;2.43;;;;;;;;;;5040230;28;20537;-53
2022/11/06 05:59:54;;;;;;;2.67;2.23;;;;;;;;;;5037026;28;20187;-55
2022/11/06 06:02:20;;;;;;;2.60;2.13;;;;;;;;;;5036813;28;20196;-53
2022/11/06 06:04:45;;;;;;;2.87;2.33;;;;;;;;;;5033141;28;20214;-57
2022/11/06 06:07:10;;;;;;;2.70;2.10;;;;;;;;;;5038097;28;20211;-54
2022/11/06 06:09:35;;;;;;;2.83;2.33;;;;;;;;;;5032817;28;20186;-55
2022/11/06 06:12:01;;;;;;;2.50;2.30;;;;;;;;;;5036208;28;20183;-55
2022/11/06 06:14:26;;;;;;;3.00;2.23;;;;;;;;;;5045681;28;20214;-53
2022/11/06 06:16:51;;;;;;;2.33;2.03;;;;;;;;;;5045260;28;20241;-58
2022/11/06 06:19:16;;;;;;;2.80;2.20;;;;;;;;;;5035726;28;20325;-55
2022/11/06 06:21:41;;;;;;;2.83;2.20;;;;;;;;;;5033322;28;20180;-54
2022/11/06 06:24:07;;;;;;;2.80;2.10;;;;;;;;;;5036813;28;20192;-54
2022/11/06 06:26:32;;;;;;;2.60;2.30;;;;;;;;;;5040659;28;20175;-51
2022/11/06 06:28:57;;;;;;;2.40;2.10;;;;;;;;;;5018272;28;20273;-56
2022/11/06 06:31:23;;;;;;;2.73;2.10;;;;;;;;;;5031028;28;20262;-51
2022/11/06 06:33:48;;;;;;;2.43;2.23;;;;;;;;;;5033839;28;20234;-53
2022/11/06 06:36:13;;;;;;;2.80;2.40;;;;;;;;;;5034897;28;20188;-53
2022/11/06 06:38:39;;;;;;;3.10;2.57;;;;;;;;;;5034513;28;20182;-52
2022/11/06 06:41:05;;;;;;;2.70;2.10;;;;;;;;;;5030091;28;20569;-51
2022/11/06 06:43:31;;;;;;;2.67;2.43;;;;;;;;;;5030523;28;20199;-53
2022/11/06 06:46:01;;;;;;;2.53;2.10;;;;;;;;;;5035830;28;20229;-51
2022/11/06 06:48:26;;;;;;;2.37;2.10;;;;;;;;;;5032377;28;20207;-52
2022/11/06 06:50:55;;;;;;;2.30;2.10;;;;;;;;;;5041339;28;20191;-52
2022/11/06 06:53:20;;;;;;;2.27;2.07;;;;;;;;;;5033163;28;20358;-51
2022/11/06 06:55:46;;;;;;;2.20;2.00;;;;;;;;;;5031916;28;20677;-54
2022/11/06 06:58:11;;;;;;;2.63;2.10;;;;;;;;;;5034280;28;20249;-55
2022/11/06 07:00:36;;;;;;;2.60;2.10;;;;;;;;;;5035842;28;20270;-54
2022/11/06 07:03:01;;;;;;;2.23;2.03;;;;;;;;;;5031166;28;20187;-54
2022/11/06 07:05:27;;;;;;;2.33;1.90;;;;;;;;;;5030445;28;20298;-54
2022/11/06 07:07:52;;;;;;;3.23;2.50;;;;;;;;;;5035759;28;20277;-53
2022/11/06 07:10:18;;;;;;;2.30;2.10;;;;;;;;;;5031735;28;20184;-52
2022/11/06 07:12:43;;;;;;;2.30;2.10;;;;;;;;;;5033442;28;20256;-54
2022/11/06 07:15:08;;;;;;;2.53;2.30;;;;;;;;;;5032614;28;20211;-54
2022/11/06 07:17:34;;;;;;;2.50;2.10;;;;;;;;;;5014873;28;20249;-51
2022/11/06 07:19:59;;;;;;;2.93;2.10;;;;;;;;;;5028703;28;20657;-53
2022/11/06 07:22:27;;;;;;;3.00;2.30;;;;;;;;;;5031604;28;20191;-52
2022/11/06 07:24:52;;;;;;;2.67;2.30;;;;;;;;;;5029690;28;20690;-54
2022/11/06 07:27:18;;;;;;;3.23;2.30;;;;;;;;;;5038752;28;20194;-51
2022/11/06 07:29:43;;;;;;;2.60;2.40;;;;;;;;;;5030781;28;20183;-55
2022/11/06 07:32:08;;;;;;;3.30;2.27;;;;;;;;;;5036378;28;20682;-50
2022/11/06 07:34:34;;;;;;;2.30;2.10;;;;;;;;;;5031084;28;20213;-54
2022/11/06 07:36:59;;;;;;;3.53;2.30;;;;;;;;;;5035964;28;20258;-55
2022/11/06 07:39:24;;;;;;;3.13;2.57;;;;;;;;;;5034488;28;20179;-52
2022/11/06 07:41:49;;;;;;;2.57;2.17;;;;;;;;;;5036291;28;20205;-58
2022/11/06 07:44:15;;;;;;;3.27;2.50;;;;;;;;;;5029167;28;20203;-54
2022/11/06 07:46:40;;;;;;;2.30;2.10;;;;;;;;;;5031937;28;20199;-53
2022/11/06 07:49:05;;;;;;;2.87;2.13;;;;;;;;;;5032094;28;20219;-52
2022/11/06 07:51:30;;;;;;;3.30;2.77;;;;;;;;;;5041566;28;20179;-52
2022/11/06 07:53:56;;;;;;;2.90;2.10;;;;;;;;;;5043256;28;20209;-53
2022/11/06 07:56:21;;;;;;;2.47;2.27;;;;;;;;;;5032741;28;20182;-56
2022/11/06 07:58:46;;;;;;;3.10;2.50;;;;;;;;;;5039250;28;20294;-51
2022/11/06 08:01:14;;;;;;;2.43;2.23;;;;;;;;;;5033000;28;20189;-51
2022/11/06 08:03:39;;;;;;;2.47;2.20;;;;;;;;;;5034228;28;20187;-53
2022/11/06 08:06:04;;;;;;;2.63;2.43;;;;;;;;;;5029828;28;20179;-53
2022/11/06 08:08:30;;;;;;;13.10;7.47;;;;;;;;;;5036440;28;20202;-55
2022/11/06 08:11:01;;;;;;;12.90;8.37;;;;;;;;;;5041440;28;20180;-51
2022/11/06 08:13:26;;;;;;;15.73;8.53;;;;;;;;;;5034442;28;20171;-56
2022/11/06 08:15:51;;;;;;;14.87;8.73;;;;;;;;;;5036283;28;20724;-53
2022/11/06 08:18:16;;;;;;;14.97;9.13;;;;;;;;;;5040322;28;20189;-54
2022/11/06 08:20:42;;;;;;;12.50;8.33;;;;;;;;;;5032666;28;20221;-54
2022/11/06 08:23:10;;;;;;;10.70;7.40;;;;;;;;;;5038416;28;20190;-52
2022/11/06 08:25:36;;;;;;;12.47;7.43;;;;;;;;;;5032198;28;20175;-54
2022/11/06 08:28:01;;;;;;;10.87;6.53;;;;;;;;;;5032242;28;20782;-54
2022/11/06 08:30:28;;;;;;;10.53;6.07;;;;;;;;;;5036367;28;20182;-54
2022/11/06 08:32:54;;;;;;;8.07;5.63;;;;;;;;;;5034306;28;20325;-56
2022/11/06 08:35:19;;;;;;;8.83;5.60;;;;;;;;;;5034861;28;20206;-51
2022/11/06 08:37:45;;;;;;;7.27;5.13;;;;;;;;;;5015759;28;20262;-59
2022/11/06 08:40:11;;;;;;;8.07;5.80;;;;;;;;;;5032045;28;20249;-59
2022/11/06 08:42:36;;;;;;;10.23;5.10;;;;;;;;;;5030386;28;20183;-57
2022/11/06 08:45:01;;;;;;;6.70;5.07;;;;;;;;;;5031868;28;20192;-61
2022/11/06 08:47:26;;;;;;;7.80;5.43;;;;;;;;;;5030563;28;20254;-57
2022/11/06 08:49:52;;;;;;;6.13;4.50;;;;;;;;;;5033389;28;20184;-60
2022/11/06 08:52:17;;;;;;;7.07;4.70;;;;;;;;;;5031704;28;20531;-58
2022/11/06 08:54:42;;;;;;;6.00;4.53;;;;;;;;;;5034468;28;20239;-60
2022/11/06 08:57:07;;;;;;;5.40;4.20;;;;;;;;;;5030499;28;20175;-57
2022/11/06 08:59:33;;;;;;;9.00;4.73;;;;;;;;;;5032041;28;20182;-60
2022/11/06 09:01:59;;;;;;;7.37;4.57;;;;;;;;;;5032014;28;20176;-57
2022/11/06 09:04:24;;;;;;;6.50;4.60;;;;;;;;;;5037278;28;20651;-56
2022/11/06 09:06:50;;;;;;;6.73;4.33;;;;;;;;;;5037670;28;20670;-57
2022/11/06 09:09:15;;;;;;;6.80;4.47;;;;;;;;;;5044420;28;20286;-57
2022/11/06 09:11:40;;;;;;;5.83;4.50;;;;;;;;;;5037182;28;20304;-57
2022/11/06 09:14:05;;;;;;;5.23;4.00;;;;;;;;;;5045198;28;20207;-60
2022/11/06 09:16:31;;;;;;;6.30;4.23;;;;;;;;;;5045193;28;20180;-60
2022/11/06 09:18:56;;;;;;;6.07;4.20;;;;;;;;;;5043097;28;20394;-60
2022/11/06 09:21:22;;;;;;;7.00;4.27;;;;;;;;;;5046523;28;20179;-61
2022/11/06 09:23:47;;;;;;;6.30;4.30;;;;;;;;;;5038868;28;20298;-61
2022/11/06 09:26:13;;;;;;;8.07;4.80;;;;;;;;;;5044455;28;20535;-62
2022/11/06 09:28:39;;;;;;;5.80;4.10;;;;;;;;;;5043715;28;20183;-59
2022/11/06 09:31:05;;;;;;;5.87;4.13;;;;;;;;;;5039565;28;20175;-60
2022/11/06 09:33:30;;;;;;;5.13;4.03;;;;;;;;;;5037220;28;20685;-60
2022/11/06 09:35:55;;;;;;;5.60;4.20;;;;;;;;;;5036201;28;20170;-60
2022/11/06 09:38:21;;;;;;;5.67;4.00;;;;;;;;;;5037569;28;20205;-58
2022/11/06 09:40:58;;;;;;;5.93;3.90;;;;;;;;;;5040386;28;20213;-59
2022/11/06 09:43:42;;;;;;;5.00;4.13;;;;;;;;;;5021811;28;20266;-60
2022/11/06 09:46:41;;;;;;;6.63;4.33;;;;;;;;;;5037907;28;20182;-60
2022/11/06 09:49:15;;;;;;;6.23;4.03;;;;;;;;;;5016073;28;20988;-59
2022/11/06 09:51:49;;;;;;;5.60;4.17;;;;;;;;;;5036860;28;20213;-59
2022/11/06 09:54:27;;;;;;;5.00;3.77;;;;;;;;;;5035980;28;20199;-60
2022/11/06 09:56:57;;;;;;;4.77;3.90;;;;;;;;;;5033091;28;20320;-60
2022/11/06 09:59:22;;;;;;;5.20;3.93;;;;;;;;;;5035604;28;20190;-60
2022/11/06 10:01:50;;;;;;;4.97;4.10;;;;;;;;;;5032733;28;20183;-61
2022/11/06 10:04:20;;;;;;;4.93;4.03;;;;;;;;;;5041996;28;20202;-58
2022/11/06 10:06:46;;;;;;;5.20;3.70;;;;;;;;;;5042892;28;20171;-59
2022/11/06 10:09:12;;;;;;;5.03;3.80;;;;;;;;;;5018238;28;20587;-57
2022/11/06 10:12:00;;;;;;;8.53;3.40;;;;;;;;;;5042838;28;20183;-58
2022/11/06 10:14:38;;;;;;;4.20;3.47;;;;;;;;;;5033978;28;20207;-56
2022/11/06 10:17:17;;;;;;;4.53;3.60;;;;;;;;;;5040014;28;20197;-60
2022/11/06 10:19:45;;;;;;;4.57;3.60;;;;;;;;;;5027069;28;20236;-58
2022/11/06 10:22:15;;;;;;;6.07;3.30;;;;;;;;;;5041765;28;20175;-58
2022/11/06 10:24:45;;;;;;;4.20;3.50;;;;;;;;;;5047818;28;20751;-56
2022/11/06 10:27:34;;;;;;;5.63;3.63;;;;;;;;;;5041929;28;20258;-56
2022/11/06 10:30:02;;;;;;;4.63;3.50;;;;;;;;;;5025356;28;20183;-57
2022/11/06 10:32:48;;;;;;;8.52;3.40;;;;;;;;;;5043879;28;20207;-58
2022/11/06 10:35:42;;;;;;;4.82;3.83;;;;;;;;;;5037847;28;20199;-57
2022/11/06 10:38:13;;;;;;;4.05;3.35;;;;;;;;;;5036871;28;20190;-57
2022/11/06 10:40:42;;;;;;;4.13;3.60;;;;;;;;;;5022363;28;20571;-56
2022/11/06 10:43:24;;;;;;;4.50;3.20;;;;;;;;;;5021596;28;20662;-58
2022/11/06 10:46:00;;;;;;;3.95;3.40;;;;;;;;;;5019143;28;20172;-57
2022/11/06 10:48:30;;;;;;;5.20;3.60;;;;;;;;;;5037108;28;20244;-59
2022/11/06 10:51:17;;;;;;;3.47;3.17;;;;;;;;;;5019580;28;20194;-59
2022/11/06 10:54:10;;;;;;;4.10;3.70;;;;;;;;;;5034892;28;20198;-59
2022/11/06 10:57:03;;;;;;;4.43;3.25;;;;;;;;;;5020221;28;20186;-58
2022/11/06 10:59:28;;;;;;;4.22;3.28;;;;;;;;;;5037600;28;20171;-58
2022/11/06 11:01:53;;;;;;;3.45;3.15;;;;;;;;;;5034196;28;20672;-60
2022/11/06 11:04:19;;;;;;;3.97;3.22;;;;;;;;;;5039281;28;20194;-60
2022/11/06 11:06:44;;;;;;;3.28;2.95;;;;;;;;;;5042284;28;20187;-57
2022/11/06 11:09:30;;;;;;;4.63;3.45;;;;;;;;;;5042506;28;20215;-55
2022/11/06 11:11:56;;;;;;;3.63;3.20;;;;;;;;;;5042714;28;20190;-57
2022/11/06 11:14:24;;;;;;;4.47;3.25;;;;;;;;;;5014680;28;20449;-53
2022/11/06 11:16:49;;;;;;;3.33;3.03;;;;;;;;;;5026847;28;20230;-52
2022/11/06 11:19:14;;;;;;;4.50;3.17;;;;;;;;;;5021024;28;20679;-56
2022/11/06 11:21:51;;;;;;;5.93;3.25;;;;;;;;;;5041989;28;20171;-53
2022/11/06 11:24:16;;;;;;;5.97;2.85;;;;;;;;;;5038138;28;20221;-52
2022/11/06 11:26:47;;;;;;;3.78;3.13;;;;;;;;;;5037194;28;20283;-55
2022/11/06 11:29:20;;;;;;;4.82;3.13;;;;;;;;;;5035655;28;20560;-54
2022/11/06 11:31:49;;;;;;;3.88;3.05;;;;;;;;;;5014509;28;20198;-52
2022/11/06 11:34:21;;;;;;;3.28;2.90;;;;;;;;;;5015356;28;20198;-53
2022/11/06 11:37:05;;;;;;;4.80;2.73;;;;;;;;;;5036199;28;20186;-53
2022/11/06 11:39:32;;;;;;;3.83;2.80;;;;;;;;;;5022701;28;20175;-53
2022/11/06 11:42:23;;;;;;;3.67;3.07;;;;;;;;;;5013158;28;20190;-51
2022/11/06 11:45:10;;;;;;;3.77;3.10;;;;;;;;;;5034404;28;20718;-51
2022/11/06 11:47:36;;;;;;;3.30;2.92;;;;;;;;;;5010884;28;20230;-52
2022/11/06 11:50:29;;;;;;;3.95;3.20;;;;;;;;;;5036488;28;20318;-54
2022/11/06 11:53:05;;;;;;;3.93;2.90;;;;;;;;;;5030734;28;20221;-52
2022/11/06 11:55:36;;;;;;;5.33;3.40;;;;;;;;;;5038686;28;20201;-51
2022/11/06 11:58:01;;;;;;;5.67;3.60;;;;;;;;;;5051286;28;20485;-56
2022/11/06 12:00:27;;;;;;;4.03;3.53;;;;;;;;;;5037972;28;20174;-55
2022/11/06 12:03:01;;;;;;;4.73;3.70;;;;;;;;;;5024953;28;20190;-55
2022/11/06 12:05:36;;;;;;;4.50;3.70;;;;;;;;;;5020356;28;20221;-56
2022/11/06 12:08:01;;;;;;;5.60;4.13;;;;;;;;;;5027565;28;20213;-57
2022/11/06 12:10:31;;;;;;;5.83;3.80;;;;;;;;;;5021204;28;20175;-57
2022/11/06 12:12:57;;;;;;;6.63;3.90;;;;;;;;;;5036135;28;20175;-56
2022/11/06 12:15:46;;;;;;;6.30;3.63;;;;;;;;;;5015313;28;20210;-56
2022/11/06 12:18:18;;;;;;;5.03;3.93;;;;;;;;;;4983942;28;20202;-56
2022/11/06 12:20:59;;;;;;;4.23;3.20;;;;;;;;;;5001658;28;20213;-52
2022/11/06 12:23:30;;;;;;;4.90;3.50;;;;;;;;;;5038101;28;20186;-52
2022/11/06 12:26:28;;;;;;;4.50;3.72;;;;;;;;;;5028591;28;20222;-55
2022/11/06 12:29:04;;;;;;;4.82;3.72;;;;;;;;;;5002207;28;20215;-52
2022/11/06 12:31:38;;;;;;;4.28;3.58;;;;;;;;;;5014198;28;20211;-54
2022/11/06 12:34:07;;;;;;;5.93;3.80;;;;;;;;;;5026832;28;20224;-54
2022/11/06 12:36:38;;;;;;;3.92;3.47;;;;;;;;;;5022786;28;20207;-54
2022/11/06 12:39:08;;;;;;;5.10;3.63;;;;;;;;;;5019688;28;20201;-52
2022/11/06 12:41:42;;;;;;;4.05;3.40;;;;;;;;;;5037991;28;20179;-56
2022/11/06 12:44:12;;;;;;;4.05;3.17;;;;;;;;;;5029782;28;20195;-55
2022/11/06 12:46:54;;;;;;;7.57;3.25;;;;;;;;;;5028865;28;20175;-56
2022/11/06 12:49:50;;;;;;;3.58;3.10;;;;;;;;;;5044985;28;20206;-55
2022/11/06 12:52:34;;;;;;;5.35;3.40;;;;;;;;;;5040912;28;20192;-55
2022/11/06 12:55:12;;;;;;;4.22;3.38;;;;;;;;;;5034957;28;20282;-56
2022/11/06 12:57:56;;;;;;;4.28;3.15;;;;;;;;;;5018028;28;20540;-55
2022/11/06 13:00:24;;;;;;;3.95;3.30;;;;;;;;;;5038621;28;20270;-56
2022/11/06 13:03:14;;;;;;;4.10;3.22;;;;;;;;;;5019696;28;20242;-52
2022/11/06 13:06:07;;;;;;;4.47;3.47;;;;;;;;;;5021812;28;20172;-51
2022/11/06 13:08:55;;;;;;;5.00;3.38;;;;;;;;;;5017574;28;20566;-52
2022/11/06 13:11:36;;;;;;;6.03;3.10;;;;;;;;;;5038792;28;20178;-54
2022/11/06 13:14:07;;;;;;;4.47;3.10;;;;;;;;;;5021603;28;20236;-52
2022/11/06 13:17:08;;;;;;;4.35;3.45;;;;;;;;;;5034845;28;20167;-50
2022/11/06 13:19:56;;;;;;;4.32;3.30;;;;;;;;;;5034233;28;20175;-53
2022/11/06 13:22:27;;;;;;;4.50;3.15;;;;;;;;;;5019899;28;20167;-56
2022/11/06 13:24:59;;;;;;;4.28;3.15;;;;;;;;;;5034256;28;20250;-54
2022/11/06 13:27:39;;;;;;;7.95;3.53;;;;;;;;;;5026609;28;20175;-55
2022/11/06 13:30:13;;;;;;;3.55;2.95;;;;;;;;;;5024582;28;20190;-56
2022/11/06 13:32:39;;;;;;;3.60;3.00;;;;;;;;;;5018679;28;20267;-58
2022/11/06 13:35:05;;;;;;;3.60;2.88;;;;;;;;;;5022396;28;20678;-59
2022/11/06 13:37:33;;;;;;;4.75;3.33;;;;;;;;;;5041139;28;20181;-59
2022/11/06 13:40:04;;;;;;;4.03;3.50;;;;;;;;;;5038519;28;20182;-59
2022/11/06 13:42:35;;;;;;;3.53;3.10;;;;;;;;;;5040632;28;20182;-58
2022/11/06 13:45:01;;;;;;;5.07;3.22;;;;;;;;;;5036813;28;20199;-59
2022/11/06 13:47:34;;;;;;;3.47;2.90;;;;;;;;;;5021145;28;20194;-59
2022/11/06 13:50:13;;;;;;;3.40;2.92;;;;;;;;;;5041030;28;20361;-59
2022/11/06 13:52:44;;;;;;;3.45;2.85;;;;;;;;;;5030762;28;20178;-59
2022/11/06 13:55:24;;;;;;;5.07;2.97;;;;;;;;;;5038447;28;20199;-59
2022/11/06 13:57:55;;;;;;;3.50;3.00;;;;;;;;;;5012727;28;20179;-58
2022/11/06 14:00:44;;;;;;;3.50;2.95;;;;;;;;;;5038244;28;20907;-59
2022/11/06 14:03:28;;;;;;;2.78;2.38;;;;;;;;;;5040997;28;20175;-57
2022/11/06 14:06:03;;;;;;;3.30;2.83;;;;;;;;;;5036216;28;20211;-58
2022/11/06 14:08:38;;;;;;;4.07;2.80;;;;;;;;;;5013309;28;20281;-59
2022/11/06 14:11:06;;;;;;;3.10;2.80;;;;;;;;;;5030398;28;20175;-59
2022/11/06 14:13:33;;;;;;;3.92;2.80;;;;;;;;;;5036649;28;20281;-58
2022/11/06 14:16:24;;;;;;;3.90;2.90;;;;;;;;;;5021901;28;20631;-58
2022/11/06 14:19:22;;;;;;;4.17;3.00;;;;;;;;;;5013548;28;20255;-58
2022/11/06 14:22:07;;;;;;;3.43;2.67;;;;;;;;;;5017867;28;20183;-56
2022/11/06 14:24:38;;;;;;;3.50;3.00;;;;;;;;;;5033642;28;20215;-58
2022/11/06 14:27:12;;;;;;;4.10;2.80;;;;;;;;;;5019973;28;20601;-58
2022/11/06 14:29:37;;;;;;;3.47;2.80;;;;;;;;;;5041348;28;20188;-58
2022/11/06 14:32:10;;;;;;;3.37;2.73;;;;;;;;;;5044094;28;20269;-58
2022/11/06 14:34:40;;;;;;;3.10;2.80;;;;;;;;;;5020220;28;20252;-58
2022/11/06 14:37:18;;;;;;;3.87;2.70;;;;;;;;;;5020278;28;20211;-58
2022/11/06 14:39:52;;;;;;;4.17;2.97;;;;;;;;;;5039407;28;20171;-58
2022/11/06 14:42:27;;;;;;;2.90;2.60;;;;;;;;;;5037505;28;20175;-57
2022/11/06 14:44:54;;;;;;;3.87;3.03;;;;;;;;;;5044438;28;20206;-58
2022/11/06 14:47:24;;;;;;;4.00;2.70;;;;;;;;;;5041925;28;20182;-58
2022/11/06 14:49:52;;;;;;;3.20;2.73;;;;;;;;;;5028793;28;20547;-58
2022/11/06 14:52:18;;;;;;;3.37;2.50;;;;;;;;;;5046681;28;20182;-58
2022/11/06 14:54:56;;;;;;;3.07;2.77;;;;;;;;;;5046194;28;20202;-58
2022/11/06 14:57:43;;;;;;;3.33;2.80;;;;;;;;;;5043217;28;20394;-58
2022/11/06 15:00:13;;;;;;;2.70;2.50;;;;;;;;;;5026566;28;20198;-57
2022/11/06 15:02:38;;;;;;;3.37;2.60;;;;;;;;;;5027331;28;20187;-58
2022/11/06 15:05:06;;;;;;;2.60;2.40;;;;;;;;;;5046844;28;20217;-58
2022/11/06 15:07:33;;;;;;;3.23;2.80;;;;;;;;;;5027972;28;20260;-58
2022/11/06 15:09:58;;;;;;;2.93;2.60;;;;;;;;;;5044181;28;20209;-57
2022/11/06 15:13:12;;;;;;;2.50;2.20;;;;;;;;;;5046802;28;20214;-58
2022/11/06 15:15:45;;;;;;;3.20;2.87;;;;;;;;;;5028043;28;20201;-57
2022/11/06 15:18:11;;;;;;;3.27;2.80;;;;;;;;;;5047227;28;20615;-57